Time;durP1;ratioP1;P1;durP2;ratioP2;P2;SDS_P1;SDS_P2;PMS_P1;PMS_P2;Temp;Humidity;BMP_temperature;BMP_pressure;BME280_temperature;BME280_humidity;BME280_pressure;Samples;Min_cycle;Max_cycle;Signal;HPM_P1;HPM_P2
2023/05/12 00:00:59;;;;;;;45.43;10.87;;;20.90;61.00;;;;;;6209710;23;20169;-94
2023/05/12 00:03:26;;;;;;;31.67;10.17;;;20.90;61.10;;;;;;6209455;23;20194;-93
2023/05/12 00:05:53;;;;;;;34.40;9.80;;;20.90;61.10;;;;;;6210482;23;20204;-93
2023/05/12 00:08:20;;;;;;;41.33;10.60;;;20.90;61.10;;;;;;6210185;23;20649;-94
2023/05/12 00:10:49;;;;;;;42.30;11.37;;;20.90;61.10;;;;;;6209555;23;20195;-93
2023/05/12 00:13:16;;;;;;;60.07;11.87;;;20.90;61.10;;;;;;6209446;23;20226;-93
2023/05/12 00:15:45;;;;;;;36.93;10.20;;;20.90;61.10;;;;;;6209833;23;20238;-93
2023/05/12 00:18:12;;;;;;;40.27;10.83;;;20.80;61.00;;;;;;6210690;23;20169;-93
2023/05/12 00:20:39;;;;;;;44.43;11.40;;;20.90;61.10;;;;;;6210700;23;20634;-93
2023/05/12 00:23:06;;;;;;;39.80;10.83;;;20.90;61.10;;;;;;6208765;23;20177;-94
2023/05/12 00:25:34;;;;;;;35.63;10.40;;;20.80;61.00;;;;;;6211084;23;20169;-94
2023/05/12 00:28:03;;;;;;;41.80;11.50;;;20.80;61.10;;;;;;6216443;23;20200;-94
2023/05/12 00:30:30;;;;;;;39.83;10.40;;;20.80;61.10;;;;;;6233422;23;20164;-95
2023/05/12 00:32:57;;;;;;;40.13;9.87;;;20.80;61.10;;;;;;6226565;23;20177;-95
2023/05/12 00:35:24;;;;;;;40.50;10.97;;;20.80;61.10;;;;;;6235507;23;20161;-95
2023/05/12 00:37:52;;;;;;;44.77;10.90;;;20.80;61.10;;;;;;6232103;23;20662;-93
2023/05/12 00:40:19;;;;;;;42.67;10.23;;;20.80;61.10;;;;;;6228542;23;20172;-92
2023/05/12 00:42:50;;;;;;;26.10;8.77;;;20.80;61.10;;;;;;6229185;23;20168;-94
2023/05/12 00:45:20;;;;;;;25.53;8.83;;;20.80;61.10;;;;;;6225383;23;20625;-94
2023/05/12 00:47:48;;;;;;;35.37;9.30;;;20.80;61.10;;;;;;6224054;23;20196;-93
2023/05/12 00:50:15;;;;;;;30.67;9.40;;;20.70;61.00;;;;;;6227976;23;20233;-93
2023/05/12 00:52:45;;;;;;;32.47;9.50;;;20.80;61.10;;;;;;6226212;23;20191;-94
2023/05/12 00:55:13;;;;;;;33.20;9.47;;;20.70;61.00;;;;;;6224347;23;20202;-94
2023/05/12 00:57:41;;;;;;;33.67;9.67;;;20.80;61.10;;;;;;6222789;23;20168;-96
2023/05/12 01:00:13;;;;;;;25.87;8.77;;;20.70;61.00;;;;;;6197669;23;20187;-96
2023/05/12 01:02:42;;;;;;;36.90;9.73;;;20.70;61.00;;;;;;6221980;23;20177;-95
2023/05/12 01:05:12;;;;;;;34.60;9.37;;;20.70;61.00;;;;;;6223931;23;20172;-93
2023/05/12 01:07:48;;;;;;;52.73;10.90;;;20.70;61.10;;;;;;6218570;23;20640;-96
2023/05/12 01:10:19;;;;;;;33.00;9.10;;;20.70;61.00;;;;;;6215555;23;20215;-95
2023/05/12 01:12:46;;;;;;;45.43;10.43;;;20.70;61.00;;;;;;6211699;23;20188;-94
2023/05/12 01:15:13;;;;;;;40.63;9.83;;;20.70;61.10;;;;;;6211928;23;20493;-96
2023/05/12 01:17:47;;;;;;;43.63;10.67;;;20.60;61.00;;;;;;6212635;23;20188;-96
2023/05/12 01:20:16;;;;;;;44.03;11.00;;;20.70;61.00;;;;;;6212201;23;20172;-94
2023/05/12 01:22:45;;;;;;;33.47;9.40;;;20.60;61.00;;;;;;6212005;23;20172;-93
2023/05/12 01:25:15;;;;;;;49.60;10.97;;;20.70;61.10;;;;;;6211477;23;20172;-93
2023/05/12 01:27:45;;;;;;;49.53;10.40;;;20.70;61.10;;;;;;6210598;23;20586;-92
2023/05/12 01:30:16;;;;;;;41.30;9.87;;;20.70;61.10;;;;;;6211649;23;20231;-93
2023/05/12 01:32:44;;;;;;;56.23;10.50;;;20.60;61.00;;;;;;6211290;23;20234;-94
2023/05/12 01:35:11;;;;;;;42.87;9.67;;;20.60;61.00;;;;;;6211029;23;20184;-92
2023/05/12 01:37:38;;;;;;;56.53;10.57;;;20.60;61.00;;;;;;6210582;23;20243;-93
2023/05/12 01:40:06;;;;;;;46.00;10.00;;;20.60;61.00;;;;;;6211849;23;20160;-92
2023/05/12 01:42:33;;;;;;;41.20;9.60;;;20.60;61.00;;;;;;6211057;23;20692;-93
2023/05/12 01:45:02;;;;;;;45.93;9.60;;;20.60;61.00;;;;;;6209708;23;20609;-93
2023/05/12 01:47:30;;;;;;;41.20;9.10;;;20.60;61.00;;;;;;6211294;23;20203;-93
2023/05/12 01:49:57;;;;;;;40.67;9.23;;;20.60;61.00;;;;;;6210826;23;20254;-94
2023/05/12 01:52:25;;;;;;;35.07;8.50;;;20.50;61.00;;;;;;6211066;23;20215;-93
2023/05/12 01:54:54;;;;;;;41.00;8.77;;;20.50;61.00;;;;;;6211075;23;20255;-93
2023/05/12 01:57:21;;;;;;;34.33;8.77;;;20.60;61.10;;;;;;6211460;23;20507;-94
2023/05/12 01:59:48;;;;;;;33.60;8.77;;;20.50;61.00;;;;;;6212045;23;20169;-93
2023/05/12 02:02:16;;;;;;;40.03;8.93;;;20.50;61.00;;;;;;6209958;23;20168;-93
2023/05/12 02:04:43;;;;;;;33.57;8.77;;;20.50;61.00;;;;;;6209988;23;20169;-92
2023/05/12 02:07:10;;;;;;;42.07;9.07;;;20.50;61.00;;;;;;6210353;23;20665;-93
2023/05/12 02:09:39;;;;;;;34.97;8.43;;;20.50;61.00;;;;;;6212273;23;20208;-93
2023/05/12 02:12:08;;;;;;;38.40;8.67;;;20.50;61.00;;;;;;6213373;23;20192;-94
2023/05/12 02:14:35;;;;;;;36.70;8.43;;;20.50;61.00;;;;;;6214868;23;20172;-95
2023/05/12 02:17:03;;;;;;;32.57;8.93;;;20.50;61.00;;;;;;6215064;23;20195;-94
2023/05/12 02:20:04;;;;;;;49.40;9.23;;;20.50;61.00;;;;;;6216539;23;20222;-96
2023/05/12 02:22:31;;;;;;;41.30;9.37;;;20.50;61.00;;;;;;6214482;23;20172;-95
2023/05/12 02:24:58;;;;;;;34.67;8.67;;;20.50;61.00;;;;;;6214438;23;20168;-96
2023/05/12 02:27:25;;;;;;;34.47;8.60;;;20.50;61.00;;;;;;6214890;23;20181;-94
2023/05/12 02:29:53;;;;;;;34.67;9.03;;;20.50;61.00;;;;;;6213603;23;20180;-95
2023/05/12 02:32:21;;;;;;;36.57;8.87;;;20.50;61.00;;;;;;6214361;23;20196;-96
2023/05/12 02:34:50;;;;;;;49.60;9.40;;;20.50;61.00;;;;;;6216081;23;20566;-96
2023/05/12 02:37:23;;;;;;;35.20;8.80;;;20.50;61.00;;;;;;6214554;23;20177;-96
2023/05/12 02:40:43;;;;;;;37.27;8.37;;;20.50;61.00;;;;;;6215764;23;20263;-96
2023/05/12 03:49:45;;;;;;;27.00;7.97;;;20.30;61.00;;;;;;6220373;23;20211;-96
2023/05/12 03:52:46;;;;;;;30.23;7.47;;;20.30;61.70;;;;;;6219010;23;20164;-96
2023/05/12 03:59:24;;;;;;;42.77;9.20;;;20.20;60.90;;;;;;6099985;22;20286;-96
2023/05/12 04:05:41;;;;;;;;;;;;;;;;;;;;;
2023/05/12 04:08:25;;;;;;;29.03;7.47;;;20.20;60.20;;;;;;6217792;23;20200;-96
2023/05/12 04:48:20;;;;;;;44.90;7.70;;;20.10;60.90;;;;;;6180621;23;20168;-96
2023/05/12 04:50:51;;;;;;;37.27;7.67;;;20.20;61.00;;;;;;6181563;23;20176;-94
2023/05/12 04:53:18;;;;;;;35.87;7.40;;;20.10;60.90;;;;;;6182361;23;20176;-94
2023/05/12 04:56:29;;;;;;;53.03;8.20;;;20.10;60.90;;;;;;6182608;23;20250;-95
2023/05/12 04:59:14;;;;;;;56.47;8.97;;;20.10;60.90;;;;;;6169481;23;20559;-96
2023/05/12 05:01:41;;;;;;;36.77;6.97;;;20.10;60.80;;;;;;6181848;23;20267;-95
2023/05/12 05:04:10;;;;;;;37.57;6.93;;;20.10;60.90;;;;;;6182224;23;20650;-95
2023/05/12 05:06:38;;;;;;;45.57;8.57;;;20.10;60.90;;;;;;6181562;23;20181;-96
2023/05/12 05:09:05;;;;;;;33.03;6.67;;;20.00;60.80;;;;;;6181828;23;20653;-95
2023/05/12 05:11:32;;;;;;;40.30;7.70;;;20.10;60.90;;;;;;6183711;23;20935;-95
2023/05/12 05:13:59;;;;;;;54.30;8.93;;;20.10;60.90;;;;;;6184841;23;20255;-95
2023/05/12 05:16:27;;;;;;;36.57;7.07;;;20.10;60.90;;;;;;6184139;23;20652;-95
2023/05/12 05:18:57;;;;;;;43.27;7.47;;;20.10;60.90;;;;;;6181374;23;20169;-95
2023/05/12 05:21:25;;;;;;;56.60;8.63;;;20.10;60.90;;;;;;6179977;23;20998;-95
2023/05/12 05:23:52;;;;;;;40.13;7.53;;;20.00;60.90;;;;;;6180631;23;20227;-94
2023/05/12 05:26:21;;;;;;;52.50;8.93;;;20.00;60.80;;;;;;6180820;23;20203;-94
2023/05/12 05:28:48;;;;;;;45.90;8.93;;;20.00;60.80;;;;;;6181253;23;20196;-95
2023/05/12 05:31:16;;;;;;;39.17;7.57;;;20.00;60.80;;;;;;6179666;23;20205;-94
2023/05/12 05:33:43;;;;;;;31.17;7.13;;;20.00;60.80;;;;;;6180552;23;20913;-95
2023/05/12 05:36:11;;;;;;;42.20;7.93;;;20.00;60.80;;;;;;6180788;23;20177;-95
2023/05/12 05:38:39;;;;;;;53.90;8.70;;;20.00;61.60;;;;;;6180442;23;20204;-95
2023/05/12 05:41:12;;;;;;;70.70;9.73;;;20.00;60.80;;;;;;6180817;23;20208;-95
2023/05/12 05:43:44;;;;;;;49.77;8.07;;;20.00;60.90;;;;;;6180616;23;20173;-94
2023/05/12 05:46:11;;;;;;;54.23;8.80;;;20.00;60.90;;;;;;6182032;23;20212;-96
2023/05/12 05:48:51;;;;;;;29.67;6.57;;;20.00;60.80;;;;;;6182240;23;20282;-96
2023/05/12 05:51:18;;;;;;;45.17;7.50;;;20.00;60.90;;;;;;6181763;23;20504;-96
2023/05/12 05:53:47;;;;;;;42.73;7.27;;;19.90;60.70;;;;;;6181977;23;20169;-96
2023/05/12 05:56:14;;;;;;;36.37;7.23;;;19.90;60.70;;;;;;6182498;23;20173;-96
2023/05/12 05:59:01;;;;;;;43.20;7.70;;;19.90;60.70;;;;;;6183836;23;20267;-95
2023/05/12 06:01:37;;;;;;;41.47;7.90;;;19.90;60.70;;;;;;6182477;23;20605;-96
2023/05/12 06:04:04;;;;;;;36.47;7.37;;;19.90;60.70;;;;;;6182505;23;20169;-95
2023/05/12 06:06:32;;;;;;;34.73;6.87;;;19.90;60.70;;;;;;6181814;23;20700;-95
2023/05/12 06:09:00;;;;;;;36.50;6.93;;;19.90;60.80;;;;;;6183060;23;20284;-94
2023/05/12 06:11:27;;;;;;;39.40;7.20;;;19.90;60.70;;;;;;6183128;23;20576;-93
2023/05/12 06:13:54;;;;;;;36.30;6.97;;;19.90;60.80;;;;;;6182087;23;20199;-95
2023/05/12 06:16:22;;;;;;;40.87;7.77;;;19.80;60.70;;;;;;6185499;23;20173;-95
2023/05/12 06:18:49;;;;;;;28.40;6.07;;;19.90;60.80;;;;;;6181987;23;20560;-95
2023/05/12 06:21:16;;;;;;;35.00;7.13;;;19.90;60.80;;;;;;6181133;23;20177;-94
2023/05/12 06:23:43;;;;;;;50.77;8.23;;;19.90;60.80;;;;;;6180613;23;20172;-94
2023/05/12 06:26:12;;;;;;;37.60;7.17;;;19.80;60.70;;;;;;6180010;23;20172;-92
2023/05/12 06:28:39;;;;;;;33.20;6.50;;;19.80;60.70;;;;;;6153357;23;20197;-93
2023/05/12 06:31:07;;;;;;;29.03;6.90;;;19.80;60.70;;;;;;6180637;23;20173;-92
2023/05/12 06:33:34;;;;;;;29.70;6.50;;;19.80;60.70;;;;;;6179960;23;20169;-93
2023/05/12 06:36:01;;;;;;;45.97;7.47;;;19.80;60.70;;;;;;6179985;23;20851;-93
2023/05/12 06:38:28;;;;;;;53.10;8.27;;;19.80;60.70;;;;;;6178511;23;20215;-93
2023/05/12 06:40:56;;;;;;;34.30;6.80;;;19.80;60.80;;;;;;6181027;23;20231;-93
2023/05/12 06:43:25;;;;;;;45.13;8.37;;;19.80;60.80;;;;;;6179879;23;20169;-94
2023/05/12 06:45:52;;;;;;;45.17;14.73;;;19.80;60.80;;;;;;6180061;23;20185;-93
2023/05/12 06:48:19;;;;;;;38.93;13.50;;;19.80;60.80;;;;;;6180088;23;20181;-94
2023/05/12 06:50:46;;;;;;;58.23;13.07;;;19.80;60.80;;;;;;6180072;23;20165;-95
2023/05/12 06:53:13;;;;;;;48.03;13.57;;;19.70;60.70;;;;;;6180772;23;20200;-96
2023/05/12 06:55:42;;;;;;;42.03;12.00;;;19.80;60.80;;;;;;6180719;23;20745;-94
2023/05/12 06:58:10;;;;;;;65.00;15.07;;;19.80;60.80;;;;;;6180422;23;20231;-96
2023/05/12 07:00:39;;;;;;;62.13;14.27;;;19.70;60.70;;;;;;6180746;23;20231;-95
2023/05/12 07:03:08;;;;;;;60.30;13.73;;;19.70;60.70;;;;;;6180697;23;20176;-95
2023/05/12 07:05:35;;;;;;;58.87;13.83;;;19.70;60.70;;;;;;6180506;23;20168;-96
2023/05/12 07:08:03;;;;;;;38.00;11.53;;;19.70;60.70;;;;;;6180446;23;20169;-93
2023/05/12 07:10:30;;;;;;;48.43;12.30;;;19.70;60.80;;;;;;6180377;23;20589;-94
2023/05/12 07:12:57;;;;;;;43.13;12.37;;;19.70;60.70;;;;;;6179251;23;20172;-94
2023/05/12 07:15:24;;;;;;;45.83;12.83;;;19.70;60.80;;;;;;6178980;23;20228;-94
2023/05/12 07:17:54;;;;;;;46.83;11.93;;;19.70;60.80;;;;;;6179312;23;20208;-94
2023/05/12 07:20:21;;;;;;;49.57;11.90;;;19.70;60.70;;;;;;6179694;23;20200;-95
2023/05/12 07:22:50;;;;;;;46.93;12.00;;;19.70;60.80;;;;;;6178209;23;20227;-93
2023/05/12 07:25:17;;;;;;;45.23;10.77;;;19.70;60.80;;;;;;6179591;23;20177;-94
2023/05/12 07:27:44;;;;;;;41.37;12.37;;;19.70;60.80;;;;;;6180339;23;20269;-94
2023/05/12 07:30:12;;;;;;;45.33;11.23;;;19.70;60.80;;;;;;6180719;23;20558;-95
2023/05/12 07:32:39;;;;;;;60.73;12.33;;;19.70;60.80;;;;;;6179623;23;20175;-94
2023/05/12 07:35:09;;;;;;;46.03;10.83;;;19.70;60.80;;;;;;6178588;23;20177;-95
2023/05/12 07:37:38;;;;;;;52.63;10.87;;;19.60;60.70;;;;;;6180192;23;20175;-95
2023/05/12 07:40:06;;;;;;;42.10;9.93;;;19.60;60.70;;;;;;6182829;23;20244;-95
2023/05/12 07:42:34;;;;;;;41.37;9.50;;;19.60;60.70;;;;;;6180829;23;20196;-95
2023/05/12 07:45:02;;;;;;;47.63;10.57;;;19.60;60.70;;;;;;6180309;23;20195;-94
2023/05/12 07:47:29;;;;;;;53.30;9.90;;;19.60;60.70;;;;;;6184753;23;20235;-96
2023/05/12 07:49:56;;;;;;;44.87;11.70;;;19.60;60.70;;;;;;6183358;23;20204;-94
2023/05/12 07:52:25;;;;;;;62.63;16.53;;;19.60;60.70;;;;;;6181446;23;20208;-95
2023/05/12 07:54:52;;;;;;;62.40;14.73;;;19.60;60.70;;;;;;6181705;23;20559;-94
2023/05/12 07:57:19;;;;;;;45.30;12.27;;;19.60;60.70;;;;;;6192714;23;20545;-96
2023/05/12 07:59:47;;;;;;;59.67;14.10;;;19.60;60.70;;;;;;6201845;23;20173;-95
2023/05/12 08:02:15;;;;;;;45.20;13.03;;;19.60;60.70;;;;;;6206115;23;20184;-96
2023/05/12 08:04:43;;;;;;;55.63;14.07;;;19.50;60.60;;;;;;6198141;23;20173;-96
2023/05/12 08:07:11;;;;;;;35.07;11.60;;;19.60;60.70;;;;;;6193216;23;20219;-96
2023/05/12 08:09:59;;;;;;;38.43;12.13;;;19.50;60.60;;;;;;6185246;23;20188;-96
2023/05/12 08:12:33;;;;;;;34.57;12.00;;;19.50;60.60;;;;;;6186283;23;20165;-96
2023/05/12 08:15:00;;;;;;;50.70;12.80;;;19.50;60.60;;;;;;6183022;23;20551;-95
2023/05/12 08:17:31;;;;;;;38.37;12.37;;;19.50;60.70;;;;;;6182556;23;20243;-95
2023/05/12 08:19:58;;;;;;;62.07;13.90;;;19.50;60.70;;;;;;6180842;23;20271;-95
2023/05/12 08:22:26;;;;;;;41.37;11.63;;;19.50;60.70;;;;;;6181352;23;20556;-96
2023/05/12 08:28:16;;;;;;;57.20;12.73;;;19.50;60.70;;;;;;6180115;23;20207;-96
2023/05/12 08:31:24;;;;;;;32.87;10.13;;;19.50;60.70;;;;;;6180655;23;20258;-95
2023/05/12 08:34:00;;;;;;;47.60;11.40;;;19.50;60.70;;;;;;6186130;23;20617;-96
2023/05/12 08:36:27;;;;;;;43.53;11.20;;;19.50;60.70;;;;;;6184388;23;20206;-96
2023/05/12 08:38:55;;;;;;;38.63;10.67;;;19.40;60.60;;;;;;6186000;23;20247;-96
2023/05/12 08:41:35;;;;;;;43.87;10.67;;;19.40;60.70;;;;;;6184417;23;20173;-96
2023/05/12 08:44:05;;;;;;;48.27;11.30;;;19.40;60.70;;;;;;6183225;23;20176;-96
2023/05/12 08:46:33;;;;;;;41.97;10.93;;;19.50;60.80;;;;;;6180803;23;20239;-96
2023/05/12 08:49:02;;;;;;;51.33;11.57;;;19.40;60.70;;;;;;6181150;23;20524;-95
2023/05/12 08:51:31;;;;;;;38.33;10.27;;;19.40;60.70;;;;;;6181069;23;20176;-96
2023/05/12 08:53:59;;;;;;;42.63;10.67;;;19.40;60.70;;;;;;6182182;23;20173;-96
2023/05/12 08:59:16;;;;;;;39.87;10.40;;;19.40;60.70;;;;;;6183123;23;20583;-96
2023/05/12 09:01:46;;;;;;;38.67;10.20;;;19.40;60.80;;;;;;6182620;23;20180;-96
2023/05/12 09:04:15;;;;;;;46.83;11.60;;;19.40;60.80;;;;;;6180319;23;20208;-96
2023/05/12 09:06:43;;;;;;;47.07;10.97;;;19.40;60.80;;;;;;6180581;23;20172;-96
2023/05/12 09:09:14;;;;;;;40.13;10.13;;;19.40;60.80;;;;;;6181029;23;20263;-96
2023/05/12 09:11:42;;;;;;;50.30;14.00;;;19.40;60.80;;;;;;6180352;23;20173;-95
2023/05/12 09:14:15;;;;;;;50.33;15.93;;;19.40;60.80;;;;;;6178646;23;20251;-96
2023/05/12 09:16:47;;;;;;;56.63;16.63;;;19.40;60.80;;;;;;6177828;23;20176;-96
2023/05/12 09:19:20;;;;;;;51.33;15.03;;;19.40;60.80;;;;;;6179175;23;20231;-95
2023/05/12 09:21:47;;;;;;;64.40;16.13;;;19.40;60.80;;;;;;6179868;23;20178;-94
2023/05/12 09:24:14;;;;;;;46.53;13.67;;;19.30;60.80;;;;;;6180095;23;20226;-95
2023/05/12 09:27:36;;;;;;;56.10;14.83;;;19.40;60.80;;;;;;6178918;23;20177;-96
2023/05/12 09:30:14;;;;;;;45.57;14.53;;;19.40;61.70;;;;;;6144933;23;20226;-95
2023/05/12 09:32:43;;;;;;;57.30;14.97;;;19.40;60.80;;;;;;6181187;23;20196;-94
2023/05/12 09:35:11;;;;;;;48.53;14.50;;;19.40;60.80;;;;;;6181345;23;20172;-95
2023/05/12 09:37:39;;;;;;;55.77;15.93;;;19.30;60.80;;;;;;6181582;23;20177;-95
2023/05/12 09:40:10;;;;;;;45.23;14.53;;;19.40;60.90;;;;;;6180349;23;20231;-95
2023/05/12 09:42:45;;;;;;;39.50;13.90;;;19.40;60.90;;;;;;6184289;23;20256;-96
2023/05/12 09:45:15;;;;;;;45.43;14.50;;;19.40;60.90;;;;;;6184828;23;20176;-96
2023/05/12 09:47:46;;;;;;;47.07;14.07;;;19.40;60.90;;;;;;6183020;23;20640;-96
2023/05/12 09:51:08;;;;;;;54.03;14.77;;;19.50;61.00;;;;;;6184064;23;20201;-96
2023/05/12 09:53:52;;;;;;;56.53;15.53;;;19.30;60.90;;;;;;6151170;23;20543;-96
2023/05/12 09:56:23;;;;;;;38.43;14.07;;;19.30;60.90;;;;;;6186629;23;20169;-96
2023/05/12 09:58:53;;;;;;;48.97;14.90;;;19.40;60.90;;;;;;6187430;23;20966;-95
2023/05/12 10:01:22;;;;;;;71.83;16.20;;;19.40;61.00;;;;;;6184883;23;20283;-95
2023/05/12 10:03:54;;;;;;;44.87;14.07;;;19.30;60.90;;;;;;6181661;23;20278;-95
2023/05/12 10:06:25;;;;;;;51.23;14.77;;;19.40;61.00;;;;;;6185157;23;20275;-96
2023/05/12 10:09:00;;;;;;;44.33;14.77;;;19.40;61.00;;;;;;6184650;23;20192;-95
2023/05/12 10:11:59;;;;;;;57.57;15.40;;;19.40;61.10;;;;;;6183995;23;20485;-96
2023/05/12 10:14:41;;;;;;;54.17;17.13;;;19.40;61.10;;;;;;6184558;23;20172;-96
2023/05/12 10:20:06;;;;;;;61.53;17.10;;;19.40;61.70;;;;;;6185550;22;20218;-96
2023/05/12 10:22:47;;;;;;;57.40;16.73;;;19.40;61.60;;;;;;6214429;23;20172;-96
2023/05/12 10:25:24;;;;;;;53.47;16.80;;;19.40;61.60;;;;;;6216390;23;20259;-95
2023/05/12 10:27:54;;;;;;;64.97;18.33;;;19.40;61.50;;;;;;6213807;23;20633;-94
2023/05/12 10:30:28;;;;;;;60.70;17.23;;;19.40;61.50;;;;;;6190049;23;20512;-94
2023/05/12 10:33:02;;;;;;;51.20;17.13;;;19.40;61.50;;;;;;6218124;23;20170;-94
2023/05/12 10:35:34;;;;;;;50.87;16.47;;;19.40;61.50;;;;;;6216227;23;20195;-94
2023/05/12 10:38:05;;;;;;;45.90;16.80;;;19.40;61.60;;;;;;6217048;23;20606;-92
2023/05/12 10:40:33;;;;;;;64.87;18.07;;;19.40;61.60;;;;;;6214740;23;20220;-94
2023/05/12 10:43:00;;;;;;;51.10;16.83;;;19.50;61.60;;;;;;6215808;23;20176;-93
2023/05/12 10:45:35;;;;;;;52.07;17.43;;;19.50;61.60;;;;;;6213484;23;20232;-93
2023/05/12 10:48:07;;;;;;;48.73;16.40;;;19.50;61.70;;;;;;6213436;23;20176;-93
2023/05/12 10:50:36;;;;;;;51.20;17.50;;;19.50;61.70;;;;;;6213096;23;20286;-92
2023/05/12 10:53:04;;;;;;;44.90;16.37;;;19.50;61.70;;;;;;6212358;23;20164;-93
2023/05/12 10:55:33;;;;;;;69.50;19.00;;;19.50;61.70;;;;;;6209931;23;20176;-91
2023/05/12 10:58:09;;;;;;;44.47;17.27;;;19.50;61.70;;;;;;6211397;23;20644;-91
2023/05/12 11:00:50;;;;;;;42.60;15.43;;;19.50;61.70;;;;;;6211522;23;20171;-92
2023/05/12 11:03:23;;;;;;;42.67;15.37;;;19.60;61.80;;;;;;6224814;23;20175;-93
2023/05/12 11:06:01;;;;;;;37.97;15.20;;;19.60;61.80;;;;;;6228799;23;20176;-93
2023/05/12 11:08:28;;;;;;;33.67;14.53;;;19.60;61.80;;;;;;6221704;23;20195;-93
2023/05/12 11:10:55;;;;;;;33.20;14.80;;;19.60;61.80;;;;;;6225662;23;20194;-93
2023/05/12 11:13:22;;;;;;;52.00;16.90;;;19.60;61.80;;;;;;6216767;23;20207;-93
2023/05/12 11:15:50;;;;;;;43.63;15.50;;;19.70;61.90;;;;;;6215645;23;20172;-95
2023/05/12 11:18:21;;;;;;;38.43;14.67;;;19.60;61.80;;;;;;6217037;23;20176;-93
2023/05/12 11:20:57;;;;;;;53.87;17.87;;;19.70;62.00;;;;;;6215423;23;20577;-92
2023/05/12 11:23:30;;;;;;;33.37;15.60;;;19.70;61.90;;;;;;6214431;23;20555;-94
2023/05/12 11:25:57;;;;;;;43.77;14.80;;;19.70;62.00;;;;;;6213398;23;20180;-95
2023/05/12 11:28:24;;;;;;;46.90;16.37;;;19.70;62.00;;;;;;6213894;23;20176;-93
2023/05/12 11:31:37;;;;;;;31.33;14.87;;;19.80;62.10;;;;;;6214165;23;20265;-93
2023/05/12 11:34:06;;;;;;;39.57;15.17;;;19.70;62.00;;;;;;6215909;23;20172;-92
2023/05/12 11:36:43;;;;;;;33.90;15.17;;;19.80;62.00;;;;;;6217255;23;20172;-93
2023/05/12 11:42:09;;;;;;;39.03;15.47;;;19.70;62.00;;;;;;6210435;22;20216;-93
2023/05/12 11:45:04;;;;;;;;;;;;;;;;;;;;;
2023/05/12 12:08:58;;;;;;;34.93;14.10;;;20.00;62.20;;;;;;6209857;23;20172;-96
2023/05/12 12:11:34;;;;;;;35.73;14.40;;;20.00;62.30;;;;;;6208786;23;20255;-95
2023/05/12 12:14:02;;;;;;;44.17;14.27;;;20.00;62.10;;;;;;6209188;23;20161;-95
2023/05/12 12:16:34;;;;;;;30.80;13.40;;;20.00;62.10;;;;;;6183054;23;20784;-93
2023/05/12 12:19:09;;;;;;;46.30;14.83;;;20.10;62.20;;;;;;6208489;23;20153;-91
2023/05/12 12:21:45;;;;;;;41.00;13.87;;;20.00;62.20;;;;;;6203871;23;20216;-93
2023/05/12 12:24:16;;;;;;;38.30;13.13;;;20.00;62.10;;;;;;6206177;23;20168;-93
2023/05/12 12:26:56;;;;;;;36.37;13.40;;;20.00;62.10;;;;;;6194655;23;20175;-95
2023/05/12 12:53:16;;;;;;;41.23;12.70;;;20.20;62.40;;;;;;6239244;22;20287;-96
2023/05/12 12:55:53;;;;;;;40.17;13.87;;;20.20;62.40;;;;;;6236790;23;20176;-96
2023/05/12 13:15:58;;;;;;;38.93;13.50;;;20.30;62.60;;;;;;6170324;23;20270;-96
2023/05/12 13:18:26;;;;;;;41.43;13.13;;;20.30;62.50;;;;;;6187611;23;20271;-96
2023/05/12 13:24:32;;;;;;;54.53;14.07;;;20.40;62.70;;;;;;6197786;23;20177;-96
2023/05/12 13:27:08;;;;;;;42.97;13.63;;;20.40;62.60;;;;;;6196647;23;20184;-96
2023/05/12 13:29:46;;;;;;;36.83;12.40;;;20.40;62.60;;;;;;6189817;23;20247;-96
2023/05/12 13:32:43;;;;;;;46.23;13.30;;;20.40;62.60;;;;;;6194033;23;20192;-96
2023/05/12 13:35:34;;;;;;;43.27;13.23;;;20.40;62.60;;;;;;6192322;23;20168;-96
2023/05/12 13:38:04;;;;;;;49.17;15.00;;;20.40;62.50;;;;;;6197084;23;20173;-96
2023/05/12 13:40:33;;;;;;;48.43;12.97;;;20.40;62.50;;;;;;6202157;23;20249;-96
2023/05/12 13:43:00;;;;;;;59.50;14.33;;;20.40;62.50;;;;;;6209423;22;20283;-96
2023/05/12 13:45:27;;;;;;;51.87;13.43;;;20.50;62.60;;;;;;6211843;23;20176;-96
2023/05/12 13:47:56;;;;;;;50.40;13.60;;;20.40;62.50;;;;;;6212311;23;20172;-94
2023/05/12 13:50:26;;;;;;;52.83;13.57;;;20.50;62.60;;;;;;6212875;23;20172;-96
2023/05/12 13:52:54;;;;;;;60.03;14.63;;;20.50;62.60;;;;;;6215120;23;20180;-96
2023/05/12 14:30:14;;;;;;;44.80;11.93;;;20.70;62.80;;;;;;6030558;23;20347;-96
2023/05/12 15:07:31;;;;;;;38.77;10.70;;;20.50;62.40;;;;;;6280764;22;20186;-96
2023/05/12 15:10:01;;;;;;;51.97;11.87;;;20.50;62.40;;;;;;6252292;22;20175;-94
2023/05/12 15:12:28;;;;;;;44.23;10.87;;;20.50;62.50;;;;;;6278632;22;20199;-94
2023/05/12 15:14:55;;;;;;;47.13;10.93;;;20.50;62.40;;;;;;6276529;22;20163;-93
2023/05/12 15:17:23;;;;;;;53.30;11.70;;;20.60;62.60;;;;;;6277267;22;20194;-93
2023/05/12 15:19:51;;;;;;;40.80;11.17;;;20.50;62.50;;;;;;6278040;22;20205;-93
2023/05/12 15:22:22;;;;;;;57.50;12.57;;;20.50;62.50;;;;;;6287888;22;20162;-93
2023/05/12 15:27:39;;;;;;;60.47;12.07;;;20.50;62.60;;;;;;6212506;22;20218;-93
2023/05/12 15:30:08;;;;;;;37.63;10.30;;;20.60;62.80;;;;;;6220444;23;20212;-92
2023/05/12 15:32:42;;;;;;;35.20;9.67;;;20.60;62.80;;;;;;6214423;23;20204;-92
2023/05/12 15:35:14;;;;;;;46.70;10.27;;;20.60;62.80;;;;;;6188107;23;20655;-92
2023/05/12 15:37:42;;;;;;;46.50;11.17;;;20.60;62.90;;;;;;6214032;23;20183;-91
2023/05/12 15:40:16;;;;;;;36.57;9.17;;;20.60;62.90;;;;;;6214451;23;20174;-91
2023/05/12 15:42:46;;;;;;;35.27;9.50;;;20.60;62.90;;;;;;6213555;23;20171;-92
2023/05/12 15:45:14;;;;;;;43.83;10.50;;;20.60;62.90;;;;;;6211866;23;20169;-92
2023/05/12 15:47:52;;;;;;;48.77;11.37;;;20.70;63.00;;;;;;6212889;23;20186;-91
2023/05/12 15:50:21;;;;;;;44.50;10.50;;;20.60;63.00;;;;;;6185431;23;20176;-91
2023/05/12 15:52:51;;;;;;;39.37;10.23;;;20.60;62.90;;;;;;6213576;23;20291;-91
2023/05/12 15:55:20;;;;;;;42.73;10.23;;;20.70;63.00;;;;;;6212506;23;20442;-91
2023/05/12 15:57:47;;;;;;;33.87;8.87;;;20.70;63.10;;;;;;6212101;23;20551;-92
2023/05/12 16:00:18;;;;;;;30.83;8.50;;;20.70;63.10;;;;;;6211599;23;20511;-92
2023/05/12 16:02:45;;;;;;;42.43;10.10;;;20.70;63.10;;;;;;6210704;23;20179;-92
2023/05/12 16:05:12;;;;;;;47.80;9.80;;;20.80;63.20;;;;;;6214683;23;20176;-91
2023/05/12 16:07:41;;;;;;;40.93;9.40;;;20.70;63.10;;;;;;6215312;23;20192;-94
2023/05/12 16:10:12;;;;;;;49.50;10.03;;;20.80;63.20;;;;;;6211879;23;20574;-89
2023/05/12 16:12:40;;;;;;;35.73;8.90;;;20.70;63.10;;;;;;6212474;23;20298;-90
2023/05/12 16:15:08;;;;;;;43.70;9.20;;;20.80;63.20;;;;;;6209092;23;20169;-90
2023/05/12 16:17:35;;;;;;;51.17;9.50;;;20.80;63.20;;;;;;6210304;23;20215;-90
2023/05/12 16:20:03;;;;;;;49.70;9.13;;;20.80;63.20;;;;;;6209138;23;20216;-91
2023/05/12 16:22:30;;;;;;;47.90;9.00;;;20.80;63.20;;;;;;6209024;23;20507;-92
2023/05/12 16:24:57;;;;;;;56.43;10.33;;;20.80;63.20;;;;;;6208874;23;20561;-92
2023/05/12 16:27:24;;;;;;;39.57;8.00;;;20.90;63.30;;;;;;6209722;23;20176;-92
2023/05/12 16:29:54;;;;;;;42.57;8.40;;;20.80;63.20;;;;;;6209725;23;20288;-92
2023/05/12 16:32:21;;;;;;;40.50;8.17;;;20.90;64.20;;;;;;6209155;23;20307;-93
2023/05/12 16:34:48;;;;;;;47.47;8.57;;;20.90;63.30;;;;;;6209752;23;20629;-91
2023/05/12 16:37:15;;;;;;;45.37;8.17;;;20.90;63.30;;;;;;6209181;23;20499;-92
2023/05/12 16:39:44;;;;;;;42.37;8.20;;;20.80;63.20;;;;;;6210236;23;20498;-91
2023/05/12 16:42:12;;;;;;;38.70;7.83;;;21.00;63.40;;;;;;6209117;23;20168;-92
2023/05/12 16:44:39;;;;;;;38.53;7.80;;;21.00;63.40;;;;;;6211049;23;20173;-92
2023/05/12 16:47:07;;;;;;;35.83;7.73;;;21.00;63.40;;;;;;6210769;23;20218;-91
2023/05/12 16:49:34;;;;;;;44.40;7.93;;;21.00;64.30;;;;;;6210699;23;20252;-92
2023/05/12 16:52:01;;;;;;;59.07;9.60;;;21.00;63.40;;;;;;6211466;23;20218;-93
2023/05/12 16:54:30;;;;;;;50.50;8.43;;;21.00;63.40;;;;;;6212011;23;20168;-91
2023/05/12 16:57:00;;;;;;;60.07;9.77;;;21.00;63.40;;;;;;6211460;23;20223;-92
2023/05/12 16:59:27;;;;;;;43.40;8.63;;;21.00;63.40;;;;;;6211543;23;20177;-92
2023/05/12 17:01:54;;;;;;;49.30;9.17;;;21.10;63.50;;;;;;6211449;23;20219;-91
2023/05/12 17:04:23;;;;;;;34.33;7.33;;;21.00;63.40;;;;;;6211272;23;20198;-92
2023/05/12 17:06:50;;;;;;;35.07;7.87;;;21.10;63.60;;;;;;6210444;23;20292;-92
2023/05/12 17:09:17;;;;;;;37.63;7.80;;;21.10;63.50;;;;;;6210539;23;20537;-92
2023/05/12 17:11:45;;;;;;;40.13;7.67;;;21.10;63.50;;;;;;6210969;23;20223;-92
2023/05/12 17:14:13;;;;;;;54.67;9.33;;;21.10;63.50;;;;;;6210328;23;20607;-92